Aérodrome :
LOGIN :

S'inscrire | Disclaimer

   EN    FR    IT 

 










Légende :    VFR   VFR Marginal   IFR   IFR Intensif   IFR Très Intensif
Visi : 
Plafond : 
>= 8 km
>= 3000ft
5 à 8 km
1000 à 3000 ft
1500m à 5 km
500 à 1000 ft
800 à 1500m
200 à 500 ft
< 800m
< 200 ft
Symboles :   Orages  Brouillard  Fortes neiges  Fortes précipitations  Vent > 20 kt
SIGMETs :   Divers  Orages  Givrage  Turbulence  Onde Orograph.  Cendres Volcan.






- Altitude de l'aérodrome : 270 ft
- Code IATA : OXF


EGTK - Oxford (Kidlington)

DERNIER METAR :
  • 211120Z 31005KT 270V330 9000 NSC 05/05 Q1042

METARs EXPIRÉS :
  • 211050Z 26003KT 8000 FEW025 04/04 Q1042
  • 211020Z VRB03KT 8000 FEW024 02/02 Q1042
  • 210950Z 24005KT 7000 BKN023 00/00 Q1042
  • 210920Z 23005KT 7000 BKN023 M00/M00 Q1042

TAF TAF EGTK
Valide du 21 à 12h jusqu'au 21 à 21h UTC


211107Z 2112/2121 VRB03KT 9999 FEW025
PROB30
TEMPO 2112/2116 8000
BECMG 2116/2119 4000 BR
PROB30 2119/2121 0300 FZFG VV///
TEMPO 2120/2121 BKN014



MET'MAP, la Météo Aéronautique d'un coup d'oeil ! - Copyright ORBIFLY Décembre 2007 - Disclaimer

ORBIFLY MET'MAP TEAM :

Programmation & Développement : Alexandra Zaïnal
Sur une idée originale de : Baudouin d'Aumeries
Assistance à la programmation : Marc-Olivier Méhu
Soutien technique & logistique : Manuel Goepfert

Contact : metmap@orbifly.com




SOURCES & CREDITS :

   NOAA